Adana Incirlik Air Force Base, Turkey

1:44 AM EEST on August 23, 2014 (GMT +0300)
Incirlik Air Base | Change Station
CLOSE
Current Station
Airport
Location: Adana Incirlik AFB,
Elevation: 217 ft
Nearby Weather Stations

Elev 217 ft 37.00 °N, 35.43 °E | Updated 24 minutes ago

Scattered Clouds
Scattered Clouds
77 °F
Feels Like 77 °F
N
2
Wind Variable Wind from ENE

Today
High -- | Low -- °F
--% Chance of Precip.
Yesterday
High -- | Low -- °F
Precip. -- in
6:01 AM 7:19 PM
Waning Crescent, 6% visible
Pressure 29.77 in
Visibility 6.2 miles
Clouds Scattered Clouds 3500 ft
Dew Point 73 °F
Humidity 89%
Rainfall 0.00 in
Snow Depth Not available.
UV 0 out of 12
Pollen Not available.
Air Quality Not available.
Flu Activity Not available.
METAR LTAG 222220Z 07002KT 9999 SCT035 25/23 Q1008 NOSIG

More Conditions Fewer Conditions

Pressure 29.77 in
Visibility 6.2 miles
Clouds Scattered Clouds 3500 ft
Dew Point 73 °F
Humidity 89%
Rainfall 0.00 in
Snow Depth Not available.
UV 0 out of 12
Pollen Not available.
Air Quality Not available.
Flu Activity Not available.
METAR LTAG 222220Z 07002KT 9999 SCT035 25/23 Q1008 NOSIG

More Conditions Fewer Conditions

10-Day Weather Forecast

Almanac

Astronomy

Aug. 23, 2014 Rise Set
Actual Time 6:01 AM EEST 7:19 PM EEST
Civil Twilight 5:34 AM EEST 7:46 PM EEST
Nautical Twilight 5:01 AM EEST 8:19 PM EEST
Astronomical Twilight 4:28 AM EEST 8:52 PM EEST
Moon 4:00 AM EEST (8/23) 5:51 PM EEST (8/23)
Length of Visible Light 14h 12m
Length of Day
13h 18m
Tomorrow will be 2m 11s shorter.
Waning Crescent, 6% of the Moon is Illuminated
Aug 22
Waning Crescent
Aug 25
New
Sep 2
First Quarter
Sep 8
Full
Sep 15
Last Quarter

Yesterday's Extremes

Country Highs Country Lows

Community

WunderPhotos

Upload Photos

1,746,278 photos uploaded!

WunderBlogs® & News

By Dr. Jeff Masters
Director of Meteorology, Weather Underground
By Kari Strenfel
Meteorologist, Weather Underground
By Christopher C. Burt
Weather Historian, Weather Underground
August 22, 2014
August 22, 2014
August 22, 2014

Nearby

Snow Depth

Not available.

Earthquake Activity

City Distance Mag. Time & Date
No recent earthquake activity has been reported nearby.
Minimum magnitude displayed is 2.5.

Coastal Water Temperatures

Place Temperature
No Stations Reporting

Nearby Weather Stations